Cerrito, Argentina
Current Conditions -  °F | °C
As of 11:00 PM on Thursday 20 Nov 2014 (Local Time) from SAOC Reporting Station
Thunderstorm Thunderstorm  
Wind Chill: 57°   Ceiling: 4000
Heat Index: 57°   Visibility: 3mi
Dew Point: 50°   Wind: 15mph
Humidity: 77%   Direction: 180°S
Pressure: 30.06"   Gusts: NA
Location:  35.46°S, 62.88°W
Report Text: SAOC 210200Z 18013KT 5000 TSRA FEW020 FEW040CBOVC040 14/10 Q1018
Loading
Personal Weather Stations






























Interactive Weather Map New forecast layout! Learn more

10-Day Weather Forecast

Advertisements
Track Severe Weather on mobile